Rock Hill, Texas
Current Conditions -  °F | °C
As of 12:15 PM on Monday 22 Dec 2014 (Local Time) from KJDD Reporting Station
Broken Clouds Broken Clouds  
Wind Chill: 66°   Ceiling: 3400
Heat Index: 66°   Visibility: 10mi
Dew Point: 52°   Wind: 14mph
Humidity: 60%   Direction: 230°SW
Pressure: 29.59"   Gusts: 17mph
Location:  32.7982°N, 95.4046°W
Report Text: KJDD 221815Z AUTO 23012G15KT 10SM BKN034 19/11 A2959 RMK AO2
Loading
Personal Weather Stations






























Interactive Weather Map New forecast layout! Learn more

10-Day Weather Forecast

Advertisements
Track Severe Weather on mobile